createdAt,value
2023-11-18T00:01:54.068Z,50.93
2023-11-18T00:06:55.843Z,74.57
2023-11-18T00:11:57.440Z,67.97
2023-11-18T00:17:00.374Z,55.87
2023-11-18T00:22:02.055Z,57.83
2023-11-18T00:27:07.647Z,52.63
2023-11-18T00:32:09.386Z,50.50
2023-11-18T00:37:11.044Z,52.23
2023-11-18T00:42:12.610Z,42.37
2023-11-18T00:52:33.841Z,42.03
2023-11-18T00:57:36.241Z,42.93
2023-11-18T01:02:40.126Z,38.30
2023-11-18T01:07:42.487Z,37.37
2023-11-18T01:12:47.227Z,35.70
2023-11-18T01:17:49.715Z,36.13
2023-11-18T01:22:51.582Z,36.13
2023-11-18T01:27:53.179Z,45.87
2023-11-18T01:32:54.823Z,38.17
2023-11-18T01:37:56.650Z,36.20
2023-11-18T01:42:58.252Z,34.83
2023-11-18T01:47:59.973Z,39.00
2023-11-18T01:53:02.202Z,34.10
2023-11-18T01:58:08.995Z,35.43
2023-11-18T02:03:10.773Z,39.10
2023-11-18T02:08:14.760Z,38.53
2023-11-18T02:13:32.421Z,41.83
2023-11-18T02:18:35.023Z,37.67
2023-11-18T02:23:36.808Z,37.40
2023-11-18T02:28:38.658Z,37.83
2023-11-18T02:34:00.584Z,32.00
2023-11-18T02:39:08.456Z,31.03
2023-11-18T02:44:11.651Z,35.60
2023-11-18T02:49:13.685Z,34.70
2023-11-18T02:54:17.636Z,36.53
2023-11-18T02:59:19.415Z,33.77
2023-11-18T03:04:21.026Z,36.13
2023-11-18T03:09:22.561Z,32.83
2023-11-18T03:14:24.592Z,34.67
2023-11-18T03:19:26.237Z,31.43
2023-11-18T03:24:29.516Z,26.43
2023-11-18T03:29:31.186Z,32.00
2023-11-18T03:34:33.744Z,31.33
2023-11-18T03:39:35.563Z,30.30
2023-11-18T03:44:38.703Z,31.83
2023-11-18T03:49:40.450Z,31.10
2023-11-18T03:54:43.037Z,24.90
2023-11-18T03:59:44.655Z,31.50
2023-11-18T04:04:46.350Z,31.90
2023-11-18T04:09:48.024Z,31.10
2023-11-18T04:14:49.859Z,31.50
2023-11-18T04:19:51.557Z,31.90
2023-11-18T04:24:53.192Z,32.37
2023-11-18T04:29:54.804Z,27.30
2023-11-18T04:34:56.727Z,26.53
2023-11-18T04:39:58.334Z,29.93
2023-11-18T04:45:00.305Z,29.40
2023-11-18T04:50:01.966Z,31.57
2023-11-18T04:55:06.595Z,31.77
2023-11-18T05:00:12.034Z,30.93
2023-11-18T05:05:13.862Z,22.37
2023-11-18T05:10:15.556Z,32.83
2023-11-18T05:15:17.153Z,22.27
2023-11-18T05:20:18.992Z,32.80
2023-11-18T05:25:21.155Z,29.20
2023-11-18T05:30:24.433Z,26.77
2023-11-18T05:35:29.525Z,31.50
2023-11-18T05:40:31.193Z,29.43
2023-11-18T05:45:55.351Z,24.40
2023-11-18T05:50:56.956Z,38.87
2023-11-18T05:55:58.497Z,35.70
2023-11-18T06:01:00.078Z,34.10
2023-11-18T06:06:01.668Z,31.53
2023-11-18T06:11:13.998Z,33.53
2023-11-18T06:16:25.466Z,26.37
2023-11-18T06:21:32.168Z,31.87
2023-11-18T06:26:37.296Z,27.70
2023-11-18T06:31:39.113Z,32.37
2023-11-18T06:36:40.793Z,35.07
2023-11-18T06:41:50.074Z,34.67
2023-11-18T06:46:52.282Z,30.80
2023-11-18T06:51:54.255Z,29.03
2023-11-18T06:56:55.881Z,28.50
2023-11-18T07:01:57.470Z,32.97
2023-11-18T07:06:59.260Z,31.37
2023-11-18T07:12:00.777Z,32.20
2023-11-18T07:17:02.453Z,32.77
2023-11-18T07:22:07.670Z,29.10
2023-11-18T07:27:12.503Z,29.43
2023-11-18T07:32:15.125Z,30.50
2023-11-18T07:37:17.672Z,27.17
2023-11-18T07:42:19.523Z,30.27
2023-11-18T07:47:22.685Z,27.27
2023-11-18T07:52:25.093Z,21.63
2023-11-18T07:57:26.671Z,27.57
2023-11-18T08:02:29.178Z,20.03
2023-11-18T08:07:30.795Z,21.53
2023-11-18T08:12:36.030Z,22.13
2023-11-18T08:17:38.049Z,17.63
2023-11-18T08:22:39.828Z,20.40
2023-11-18T08:27:42.143Z,20.90
2023-11-18T08:32:46.468Z,15.20
2023-11-18T08:37:48.924Z,16.70
2023-11-18T08:42:52.124Z,13.60
2023-11-18T08:47:54.546Z,15.07
2023-11-18T08:53:00.124Z,16.87
2023-11-18T08:58:04.992Z,13.27
2023-11-18T09:03:07.244Z,13.43
2023-11-18T09:08:09.083Z,14.03
2023-11-18T09:13:13.129Z,12.03
2023-11-18T09:18:14.839Z,11.93
2023-11-18T09:23:19.933Z,13.87
2023-11-18T09:28:25.699Z,16.03
2023-11-18T09:33:33.796Z,18.67
2023-11-18T09:38:36.981Z,14.27
2023-11-18T09:43:49.353Z,11.90
2023-11-18T09:49:03.092Z,13.00
2023-11-18T09:54:19.220Z,12.57
2023-11-18T09:59:31.233Z,14.47
2023-11-18T10:04:34.305Z,12.50
2023-11-18T10:09:40.124Z,13.17
2023-11-18T10:14:44.902Z,12.23
2023-11-18T10:19:57.301Z,12.93
2023-11-18T10:25:02.086Z,9.83
2023-11-18T10:30:20.387Z,11.93
2023-11-18T10:35:22.428Z,11.17
2023-11-18T10:40:25.386Z,10.93
2023-11-18T10:45:28.792Z,11.63
2023-11-18T10:50:33.403Z,10.00
2023-11-18T10:55:39.372Z,9.90
2023-11-18T11:01:01.609Z,11.00
2023-11-18T11:06:18.348Z,12.77
2023-11-18T11:11:26.820Z,10.50
2023-11-18T11:16:52.643Z,8.53
2023-11-18T11:22:07.411Z,10.67
2023-11-18T11:27:40.040Z,7.93
2023-11-18T11:32:54.888Z,9.50
2023-11-18T11:38:05.160Z,10.63
2023-11-18T11:43:10.795Z,10.80
2023-11-18T11:48:16.572Z,13.73
2023-11-18T11:53:24.137Z,10.17
2023-11-18T11:58:34.511Z,12.10
2023-11-18T12:03:46.215Z,11.73
2023-11-18T12:08:52.323Z,19.30
2023-11-18T12:14:10.961Z,10.07
2023-11-18T12:19:37.501Z,12.57
2023-11-18T12:24:39.842Z,11.30
2023-11-18T12:29:44.942Z,10.13
2023-11-18T12:34:55.024Z,8.30
2023-11-18T12:40:05.738Z,12.87
2023-11-18T12:45:37.516Z,9.40
2023-11-18T12:50:46.733Z,13.60
2023-11-18T12:55:49.460Z,10.80
2023-11-18T13:00:51.207Z,8.53
2023-11-18T13:05:53.291Z,10.00
2023-11-18T13:10:54.937Z,13.43
2023-11-18T13:15:56.588Z,9.97
2023-11-18T13:20:59.156Z,9.03
2023-11-18T13:26:01.555Z,11.27
2023-11-18T13:31:04.550Z,12.80
2023-11-18T13:36:07.823Z,10.10
2023-11-18T13:41:10.516Z,9.17
2023-11-18T13:46:15.750Z,7.80
2023-11-18T13:51:19.091Z,8.63
2023-11-18T13:56:21.330Z,7.83
2023-11-18T14:01:23.226Z,6.20
2023-11-18T14:06:28.497Z,6.13
2023-11-18T14:11:30.679Z,8.97
2023-11-18T14:16:32.322Z,5.93
2023-11-18T14:21:33.974Z,5.30
2023-11-18T14:26:35.694Z,6.57
2023-11-18T14:31:37.513Z,5.70
2023-11-18T14:36:39.193Z,5.70
2023-11-18T14:41:41.725Z,5.83
2023-11-18T14:46:43.706Z,6.47
2023-11-18T14:51:45.269Z,9.13
2023-11-18T14:56:50.422Z,9.70
2023-11-18T15:01:53.387Z,8.13
2023-11-18T15:07:00.652Z,10.07
2023-11-18T15:12:02.736Z,10.23
2023-11-18T15:17:04.616Z,11.07
2023-11-18T15:22:06.294Z,9.40
2023-11-18T15:27:07.816Z,9.50
2023-11-18T15:32:09.635Z,9.30
2023-11-18T15:37:11.510Z,8.60
2023-11-18T15:42:14.877Z,7.07
2023-11-18T15:47:18.336Z,9.43
2023-11-18T15:52:19.913Z,9.60
2023-11-18T15:57:22.642Z,9.20
2023-11-18T16:02:25.060Z,8.40
2023-11-18T16:07:26.646Z,7.83
2023-11-18T16:12:30.752Z,7.57
2023-11-18T16:17:32.340Z,7.30
2023-11-18T16:22:35.557Z,7.27
2023-11-18T16:27:37.377Z,8.53
2023-11-18T16:32:38.940Z,12.90
2023-11-18T16:37:40.898Z,7.73
2023-11-18T16:42:43.644Z,6.87
2023-11-18T16:47:46.933Z,8.10
2023-11-18T16:52:51.524Z,7.10
2023-11-18T16:57:54.692Z,8.67
2023-11-18T17:02:59.431Z,8.63
2023-11-18T17:08:02.577Z,6.67
2023-11-18T17:13:05.669Z,8.03
2023-11-18T17:18:07.503Z,7.40
2023-11-18T17:23:09.245Z,9.27
2023-11-18T17:28:10.889Z,7.23
2023-11-18T17:33:12.950Z,12.27
2023-11-18T17:38:14.556Z,7.03
2023-11-18T17:43:16.139Z,9.23
2023-11-18T17:48:17.761Z,7.50
2023-11-18T17:53:19.882Z,7.60
2023-11-18T17:58:21.536Z,9.17
2023-11-18T18:03:23.078Z,7.70
2023-11-18T18:08:24.737Z,7.23
2023-11-18T18:13:26.364Z,7.47
2023-11-18T18:18:28.112Z,8.33
2023-11-18T18:23:30.493Z,6.07
2023-11-18T18:28:32.079Z,6.70
2023-11-18T18:33:33.574Z,8.00
2023-11-18T18:38:35.115Z,7.13
2023-11-18T18:43:36.635Z,7.80
2023-11-18T18:48:38.290Z,6.70
2023-11-18T18:53:39.822Z,8.27
2023-11-18T18:58:41.420Z,12.20
2023-11-18T19:03:43.092Z,11.50
2023-11-18T19:08:44.715Z,13.33
2023-11-18T19:13:46.314Z,9.33
2023-11-18T19:18:47.889Z,8.07
2023-11-18T19:23:49.440Z,8.90
2023-11-18T19:28:50.978Z,9.13
2023-11-18T19:33:52.536Z,16.03
2023-11-18T19:38:54.125Z,8.83
2023-11-18T19:43:56.857Z,10.17
2023-11-18T19:48:58.656Z,9.20
2023-11-18T19:54:00.204Z,9.57
2023-11-18T19:59:01.818Z,9.60
2023-11-18T20:04:03.605Z,9.53
2023-11-18T20:09:07.525Z,8.70
2023-11-18T20:14:09.136Z,9.33
2023-11-18T20:19:10.785Z,7.83
2023-11-18T20:24:12.343Z,10.90
2023-11-18T20:29:14.724Z,7.63
2023-11-18T20:34:16.496Z,10.03
2023-11-18T20:39:20.702Z,9.90
2023-11-18T20:44:22.309Z,7.43
2023-11-18T20:49:23.924Z,10.20
2023-11-18T20:54:26.413Z,7.17
2023-11-18T20:59:28.144Z,6.07
2023-11-18T21:04:30.570Z,7.10
2023-11-18T21:09:32.256Z,6.50
2023-11-18T21:14:34.672Z,5.87
2023-11-18T21:19:36.225Z,4.73
2023-11-18T21:24:37.719Z,4.83
2023-11-18T21:29:39.284Z,4.57
2023-11-18T21:34:44.255Z,3.77
2023-11-18T21:39:46.159Z,4.20
2023-11-18T21:44:48.633Z,4.73
2023-11-18T21:49:52.821Z,4.10
2023-11-18T21:54:54.642Z,3.63
2023-11-18T21:59:56.228Z,6.03
2023-11-18T22:04:59.277Z,4.10
2023-11-18T22:10:00.944Z,4.20
2023-11-18T22:15:05.487Z,4.37
2023-11-18T22:20:13.538Z,3.33
2023-11-18T22:25:16.134Z,4.20
2023-11-18T22:30:18.381Z,4.07
2023-11-18T22:35:20.985Z,4.10
2023-11-18T22:40:23.166Z,4.13
2023-11-18T22:45:24.690Z,5.10
2023-11-18T22:50:26.402Z,5.23
2023-11-18T22:55:28.376Z,5.63
2023-11-18T23:00:36.006Z,6.40
2023-11-18T23:05:40.479Z,5.33
2023-11-18T23:10:42.205Z,5.67
2023-11-18T23:21:03.927Z,6.40
2023-11-18T23:26:06.741Z,7.33
2023-11-18T23:31:12.327Z,5.80
2023-11-18T23:36:17.055Z,6.20
2023-11-18T23:41:18.785Z,5.93
2023-11-18T23:46:20.725Z,5.50
2023-11-18T23:51:22.280Z,5.83
2023-11-18T23:56:23.806Z,5.97
